sensor_id;sensor_type;location;lat;lon;timestamp;temperature;humidity
52879;DHT22;38747;53.140;6.498;2022-07-17T00:01:19;11.00;99.90
52879;DHT22;38747;53.140;6.498;2022-07-17T00:03:47;11.00;99.90
52879;DHT22;38747;53.140;6.498;2022-07-17T00:06:13;10.90;99.90
52879;DHT22;38747;53.140;6.498;2022-07-17T00:08:40;10.90;99.90
52879;DHT22;38747;53.140;6.498;2022-07-17T00:11:05;10.90;99.90
52879;DHT22;38747;53.140;6.498;2022-07-17T00:13:31;10.80;99.90
52879;DHT22;38747;53.140;6.498;2022-07-17T00:15:57;10.70;99.90
52879;DHT22;38747;53.140;6.498;2022-07-17T00:18:22;10.70;99.90
52879;DHT22;38747;53.140;6.498;2022-07-17T00:20:48;10.70;99.90
52879;DHT22;38747;53.140;6.498;2022-07-17T00:23:14;10.60;99.90
52879;DHT22;38747;53.140;6.498;2022-07-17T00:25:39;10.60;99.90
52879;DHT22;38747;53.140;6.498;2022-07-17T00:28:05;10.50;99.90
52879;DHT22;38747;53.140;6.498;2022-07-17T00:30:31;10.50;99.90
52879;DHT22;38747;53.140;6.498;2022-07-17T00:32:57;10.40;99.90
52879;DHT22;38747;53.140;6.498;2022-07-17T00:35:23;10.40;99.90
52879;DHT22;38747;53.140;6.498;2022-07-17T00:37:49;10.40;99.90
52879;DHT22;38747;53.140;6.498;2022-07-17T00:40:20;10.40;99.90
52879;DHT22;38747;53.140;6.498;2022-07-17T00:42:46;10.40;99.90
52879;DHT22;38747;53.140;6.498;2022-07-17T00:45:13;10.40;99.90
52879;DHT22;38747;53.140;6.498;2022-07-17T00:48:00;10.30;99.90
52879;DHT22;38747;53.140;6.498;2022-07-17T00:50:34;10.30;99.90
52879;DHT22;38747;53.140;6.498;2022-07-17T00:53:01;10.20;99.90
52879;DHT22;38747;53.140;6.498;2022-07-17T00:55:28;10.20;99.90
52879;DHT22;38747;53.140;6.498;2022-07-17T00:57:55;10.10;99.90
52879;DHT22;38747;53.140;6.498;2022-07-17T01:00:21;10.20;99.90
52879;DHT22;38747;53.140;6.498;2022-07-17T01:02:49;10.20;99.90
52879;DHT22;38747;53.140;6.498;2022-07-17T01:05:15;10.20;99.90
52879;DHT22;38747;53.140;6.498;2022-07-17T01:07:42;10.20;99.90
52879;DHT22;38747;53.140;6.498;2022-07-17T01:10:08;10.20;99.90
52879;DHT22;38747;53.140;6.498;2022-07-17T01:12:34;10.10;99.90
52879;DHT22;38747;53.140;6.498;2022-07-17T01:15:01;10.10;99.90
52879;DHT22;38747;53.140;6.498;2022-07-17T01:17:27;10.10;99.90
52879;DHT22;38747;53.140;6.498;2022-07-17T01:19:53;10.00;99.90
52879;DHT22;38747;53.140;6.498;2022-07-17T01:22:19;10.10;99.90
52879;DHT22;38747;53.140;6.498;2022-07-17T01:24:45;10.00;99.90
52879;DHT22;38747;53.140;6.498;2022-07-17T01:27:11;9.90;99.90
52879;DHT22;38747;53.140;6.498;2022-07-17T01:29:37;10.00;99.90
52879;DHT22;38747;53.140;6.498;2022-07-17T01:32:03;10.00;99.90
52879;DHT22;38747;53.140;6.498;2022-07-17T01:34:29;10.00;99.90
52879;DHT22;38747;53.140;6.498;2022-07-17T01:36:55;10.00;99.90
52879;DHT22;38747;53.140;6.498;2022-07-17T01:39:20;9.90;99.90
52879;DHT22;38747;53.140;6.498;2022-07-17T01:42:06;9.90;99.90
52879;DHT22;38747;53.140;6.498;2022-07-17T01:44:31;9.90;99.90
52879;DHT22;38747;53.140;6.498;2022-07-17T01:46:57;9.90;99.90
52879;DHT22;38747;53.140;6.498;2022-07-17T01:49:23;9.80;99.90
52879;DHT22;38747;53.140;6.498;2022-07-17T01:51:48;9.90;99.90
52879;DHT22;38747;53.140;6.498;2022-07-17T01:54:15;9.80;99.90
52879;DHT22;38747;53.140;6.498;2022-07-17T01:56:40;9.80;99.90
52879;DHT22;38747;53.140;6.498;2022-07-17T01:59:06;9.80;99.90
52879;DHT22;38747;53.140;6.498;2022-07-17T02:01:31;9.80;99.90
52879;DHT22;38747;53.140;6.498;2022-07-17T02:03:57;9.80;99.90
52879;DHT22;38747;53.140;6.498;2022-07-17T02:06:23;9.80;99.90
52879;DHT22;38747;53.140;6.498;2022-07-17T02:08:48;9.70;99.90
52879;DHT22;38747;53.140;6.498;2022-07-17T02:11:16;9.70;99.90
52879;DHT22;38747;53.140;6.498;2022-07-17T02:13:42;9.70;99.90
52879;DHT22;38747;53.140;6.498;2022-07-17T02:16:10;9.70;99.90
52879;DHT22;38747;53.140;6.498;2022-07-17T02:18:36;9.60;99.90
52879;DHT22;38747;53.140;6.498;2022-07-17T02:21:02;9.60;99.90
52879;DHT22;38747;53.140;6.498;2022-07-17T02:23:28;9.60;99.90
52879;DHT22;38747;53.140;6.498;2022-07-17T02:25:54;9.60;99.90
52879;DHT22;38747;53.140;6.498;2022-07-17T02:28:20;9.60;99.90
52879;DHT22;38747;53.140;6.498;2022-07-17T02:30:46;9.60;99.90
52879;DHT22;38747;53.140;6.498;2022-07-17T02:33:12;9.60;99.90
52879;DHT22;38747;53.140;6.498;2022-07-17T02:35:37;9.60;99.90
52879;DHT22;38747;53.140;6.498;2022-07-17T02:38:03;9.60;99.90
52879;DHT22;38747;53.140;6.498;2022-07-17T02:40:29;9.50;99.90
52879;DHT22;38747;53.140;6.498;2022-07-17T02:42:54;9.50;99.90
52879;DHT22;38747;53.140;6.498;2022-07-17T02:45:20;9.50;99.90
52879;DHT22;38747;53.140;6.498;2022-07-17T02:47:50;9.50;99.90
52879;DHT22;38747;53.140;6.498;2022-07-17T02:50:15;9.40;99.90
52879;DHT22;38747;53.140;6.498;2022-07-17T02:52:41;9.40;99.90
52879;DHT22;38747;53.140;6.498;2022-07-17T02:55:10;9.40;99.90
52879;DHT22;38747;53.140;6.498;2022-07-17T02:57:39;9.30;99.90
52879;DHT22;38747;53.140;6.498;2022-07-17T03:00:06;9.30;99.90
52879;DHT22;38747;53.140;6.498;2022-07-17T03:02:32;9.30;99.90
52879;DHT22;38747;53.140;6.498;2022-07-17T03:04:58;9.30;99.90
52879;DHT22;38747;53.140;6.498;2022-07-17T03:07:23;9.30;99.90
52879;DHT22;38747;53.140;6.498;2022-07-17T03:09:49;9.40;99.90
52879;DHT22;38747;53.140;6.498;2022-07-17T03:12:15;9.40;99.90
52879;DHT22;38747;53.140;6.498;2022-07-17T03:14:40;9.30;99.90
52879;DHT22;38747;53.140;6.498;2022-07-17T03:17:06;9.30;99.90
52879;DHT22;38747;53.140;6.498;2022-07-17T03:19:32;9.30;99.90
52879;DHT22;38747;53.140;6.498;2022-07-17T03:21:58;9.30;99.90
52879;DHT22;38747;53.140;6.498;2022-07-17T03:24:23;9.30;99.90
52879;DHT22;38747;53.140;6.498;2022-07-17T03:26:49;9.30;99.90
52879;DHT22;38747;53.140;6.498;2022-07-17T03:29:14;9.30;99.90
52879;DHT22;38747;53.140;6.498;2022-07-17T03:31:43;9.30;99.90
52879;DHT22;38747;53.140;6.498;2022-07-17T03:34:09;9.30;99.90
52879;DHT22;38747;53.140;6.498;2022-07-17T03:36:34;9.30;99.90
52879;DHT22;38747;53.140;6.498;2022-07-17T03:39:00;9.30;99.90
52879;DHT22;38747;53.140;6.498;2022-07-17T03:41:26;9.30;99.90
52879;DHT22;38747;53.140;6.498;2022-07-17T03:43:52;9.30;99.90
52879;DHT22;38747;53.140;6.498;2022-07-17T03:46:17;9.30;99.90
52879;DHT22;38747;53.140;6.498;2022-07-17T03:48:43;9.30;99.90
52879;DHT22;38747;53.140;6.498;2022-07-17T03:51:08;9.30;99.90
52879;DHT22;38747;53.140;6.498;2022-07-17T03:53:34;9.30;99.90
52879;DHT22;38747;53.140;6.498;2022-07-17T03:56:00;9.40;99.90
52879;DHT22;38747;53.140;6.498;2022-07-17T03:58:25;9.40;99.90
52879;DHT22;38747;53.140;6.498;2022-07-17T04:00:51;9.40;99.90
52879;DHT22;38747;53.140;6.498;2022-07-17T04:03:17;9.40;99.90
52879;DHT22;38747;53.140;6.498;2022-07-17T04:05:42;9.40;99.90
52879;DHT22;38747;53.140;6.498;2022-07-17T04:08:08;9.40;99.90
52879;DHT22;38747;53.140;6.498;2022-07-17T04:10:34;9.50;99.90
52879;DHT22;38747;53.140;6.498;2022-07-17T04:13:01;9.50;99.90
52879;DHT22;38747;53.140;6.498;2022-07-17T04:15:26;9.50;99.90
52879;DHT22;38747;53.140;6.498;2022-07-17T04:18:10;9.60;99.90
52879;DHT22;38747;53.140;6.498;2022-07-17T04:20:36;9.60;99.90
52879;DHT22;38747;53.140;6.498;2022-07-17T04:23:01;9.70;99.90
52879;DHT22;38747;53.140;6.498;2022-07-17T04:25:28;9.70;99.90
52879;DHT22;38747;53.140;6.498;2022-07-17T04:27:53;9.80;99.90
52879;DHT22;38747;53.140;6.498;2022-07-17T04:30:19;9.80;99.90
52879;DHT22;38747;53.140;6.498;2022-07-17T04:32:44;9.90;99.90
52879;DHT22;38747;53.140;6.498;2022-07-17T04:35:10;10.00;99.90
52879;DHT22;38747;53.140;6.498;2022-07-17T04:37:36;10.00;99.90
52879;DHT22;38747;53.140;6.498;2022-07-17T04:40:01;10.10;99.90
52879;DHT22;38747;53.140;6.498;2022-07-17T04:42:27;10.10;99.90
52879;DHT22;38747;53.140;6.498;2022-07-17T04:44:52;10.20;99.90
52879;DHT22;38747;53.140;6.498;2022-07-17T04:47:18;10.20;99.90
52879;DHT22;38747;53.140;6.498;2022-07-17T04:49:43;10.30;99.90
52879;DHT22;38747;53.140;6.498;2022-07-17T04:52:09;10.30;99.90
52879;DHT22;38747;53.140;6.498;2022-07-17T04:54:35;10.40;99.90
52879;DHT22;38747;53.140;6.498;2022-07-17T04:57:00;10.40;99.90
52879;DHT22;38747;53.140;6.498;2022-07-17T04:59:26;10.40;99.90
52879;DHT22;38747;53.140;6.498;2022-07-17T05:01:51;10.50;99.90
52879;DHT22;38747;53.140;6.498;2022-07-17T05:04:17;10.60;99.90
52879;DHT22;38747;53.140;6.498;2022-07-17T05:06:42;10.60;99.90
52879;DHT22;38747;53.140;6.498;2022-07-17T05:09:08;10.70;99.90
52879;DHT22;38747;53.140;6.498;2022-07-17T05:11:34;10.70;99.90
52879;DHT22;38747;53.140;6.498;2022-07-17T05:14:00;10.80;99.90
52879;DHT22;38747;53.140;6.498;2022-07-17T05:16:25;10.90;99.90
52879;DHT22;38747;53.140;6.498;2022-07-17T05:18:51;11.00;99.90
52879;DHT22;38747;53.140;6.498;2022-07-17T05:21:17;11.10;99.90
52879;DHT22;38747;53.140;6.498;2022-07-17T05:23:42;11.10;99.90
52879;DHT22;38747;53.140;6.498;2022-07-17T05:26:08;11.20;99.90
52879;DHT22;38747;53.140;6.498;2022-07-17T05:28:34;11.30;99.90
52879;DHT22;38747;53.140;6.498;2022-07-17T05:30:59;11.30;99.90
52879;DHT22;38747;53.140;6.498;2022-07-17T05:33:25;11.40;99.90
52879;DHT22;38747;53.140;6.498;2022-07-17T05:35:50;11.50;99.90
52879;DHT22;38747;53.140;6.498;2022-07-17T05:38:16;11.60;99.90
52879;DHT22;38747;53.140;6.498;2022-07-17T05:40:42;11.80;99.90
52879;DHT22;38747;53.140;6.498;2022-07-17T05:43:08;11.80;99.90
52879;DHT22;38747;53.140;6.498;2022-07-17T05:45:34;11.90;99.90
52879;DHT22;38747;53.140;6.498;2022-07-17T05:47:59;12.00;99.90
52879;DHT22;38747;53.140;6.498;2022-07-17T05:50:25;12.10;99.90
52879;DHT22;38747;53.140;6.498;2022-07-17T05:52:50;12.30;99.90
52879;DHT22;38747;53.140;6.498;2022-07-17T05:55:16;12.30;99.90
52879;DHT22;38747;53.140;6.498;2022-07-17T05:57:42;12.40;99.90
52879;DHT22;38747;53.140;6.498;2022-07-17T06:00:08;12.50;99.90
52879;DHT22;38747;53.140;6.498;2022-07-17T06:02:34;12.50;99.90
52879;DHT22;38747;53.140;6.498;2022-07-17T06:04:59;12.70;99.90
52879;DHT22;38747;53.140;6.498;2022-07-17T06:07:25;12.80;99.90
52879;DHT22;38747;53.140;6.498;2022-07-17T06:09:50;12.90;99.90
52879;DHT22;38747;53.140;6.498;2022-07-17T06:12:16;13.00;99.90
52879;DHT22;38747;53.140;6.498;2022-07-17T06:14:41;13.10;99.90
52879;DHT22;38747;53.140;6.498;2022-07-17T06:17:07;13.20;99.90
52879;DHT22;38747;53.140;6.498;2022-07-17T06:19:33;13.30;99.90
52879;DHT22;38747;53.140;6.498;2022-07-17T06:21:58;13.40;99.90
52879;DHT22;38747;53.140;6.498;2022-07-17T06:24:24;13.50;99.90
52879;DHT22;38747;53.140;6.498;2022-07-17T06:26:50;13.60;99.90
52879;DHT22;38747;53.140;6.498;2022-07-17T06:29:16;13.80;99.90
52879;DHT22;38747;53.140;6.498;2022-07-17T06:31:41;13.90;99.90
52879;DHT22;38747;53.140;6.498;2022-07-17T06:34:07;14.00;99.90
52879;DHT22;38747;53.140;6.498;2022-07-17T06:36:32;14.10;99.90
52879;DHT22;38747;53.140;6.498;2022-07-17T06:38:58;14.20;99.90
52879;DHT22;38747;53.140;6.498;2022-07-17T06:41:24;14.40;99.90
52879;DHT22;38747;53.140;6.498;2022-07-17T06:43:49;14.60;99.90
52879;DHT22;38747;53.140;6.498;2022-07-17T06:46:15;14.80;99.90
52879;DHT22;38747;53.140;6.498;2022-07-17T06:48:40;14.80;99.90
52879;DHT22;38747;53.140;6.498;2022-07-17T06:51:06;14.90;99.90
52879;DHT22;38747;53.140;6.498;2022-07-17T06:53:32;14.90;99.90
52879;DHT22;38747;53.140;6.498;2022-07-17T06:55:57;14.90;99.90
52879;DHT22;38747;53.140;6.498;2022-07-17T06:58:23;15.00;99.90
52879;DHT22;38747;53.140;6.498;2022-07-17T07:00:48;15.00;99.90
52879;DHT22;38747;53.140;6.498;2022-07-17T07:03:14;15.10;99.90
52879;DHT22;38747;53.140;6.498;2022-07-17T07:05:40;15.10;99.90
52879;DHT22;38747;53.140;6.498;2022-07-17T07:08:05;15.10;99.90
52879;DHT22;38747;53.140;6.498;2022-07-17T07:10:31;15.20;99.90
52879;DHT22;38747;53.140;6.498;2022-07-17T07:12:56;15.20;99.90
52879;DHT22;38747;53.140;6.498;2022-07-17T07:15:22;15.20;99.90
52879;DHT22;38747;53.140;6.498;2022-07-17T07:17:49;15.20;99.90
52879;DHT22;38747;53.140;6.498;2022-07-17T07:20:15;15.30;99.90
52879;DHT22;38747;53.140;6.498;2022-07-17T07:22:40;15.30;99.90
52879;DHT22;38747;53.140;6.498;2022-07-17T07:25:06;15.40;99.90
52879;DHT22;38747;53.140;6.498;2022-07-17T07:27:32;15.40;99.90
52879;DHT22;38747;53.140;6.498;2022-07-17T07:29:58;15.50;99.90
52879;DHT22;38747;53.140;6.498;2022-07-17T07:32:23;15.50;99.90
52879;DHT22;38747;53.140;6.498;2022-07-17T07:34:49;15.60;99.90
52879;DHT22;38747;53.140;6.498;2022-07-17T07:37:14;15.70;99.90
52879;DHT22;38747;53.140;6.498;2022-07-17T07:39:40;15.80;99.90
52879;DHT22;38747;53.140;6.498;2022-07-17T07:42:06;15.90;99.90
52879;DHT22;38747;53.140;6.498;2022-07-17T07:44:32;16.00;99.90
52879;DHT22;38747;53.140;6.498;2022-07-17T07:46:58;16.10;99.90
52879;DHT22;38747;53.140;6.498;2022-07-17T07:49:23;16.20;99.90
52879;DHT22;38747;53.140;6.498;2022-07-17T07:51:49;16.30;99.90
52879;DHT22;38747;53.140;6.498;2022-07-17T07:54:14;16.40;99.90
52879;DHT22;38747;53.140;6.498;2022-07-17T07:56:40;16.40;99.90
52879;DHT22;38747;53.140;6.498;2022-07-17T07:59:06;16.50;99.90
52879;DHT22;38747;53.140;6.498;2022-07-17T08:01:31;16.60;99.90
52879;DHT22;38747;53.140;6.498;2022-07-17T08:03:57;16.60;99.90
52879;DHT22;38747;53.140;6.498;2022-07-17T08:06:22;16.70;99.90
52879;DHT22;38747;53.140;6.498;2022-07-17T08:08:48;16.80;99.90
52879;DHT22;38747;53.140;6.498;2022-07-17T08:11:13;16.80;99.90
52879;DHT22;38747;53.140;6.498;2022-07-17T08:13:40;16.80;99.90
52879;DHT22;38747;53.140;6.498;2022-07-17T08:16:06;16.80;99.90
52879;DHT22;38747;53.140;6.498;2022-07-17T08:18:32;16.70;99.90
52879;DHT22;38747;53.140;6.498;2022-07-17T08:20:57;16.60;99.90
52879;DHT22;38747;53.140;6.498;2022-07-17T08:23:23;16.60;99.90
52879;DHT22;38747;53.140;6.498;2022-07-17T08:25:48;16.50;99.90
52879;DHT22;38747;53.140;6.498;2022-07-17T08:28:14;16.50;99.90
52879;DHT22;38747;53.140;6.498;2022-07-17T08:30:40;16.50;99.90
52879;DHT22;38747;53.140;6.498;2022-07-17T08:33:07;16.50;99.90
52879;DHT22;38747;53.140;6.498;2022-07-17T08:35:37;16.50;99.90
52879;DHT22;38747;53.140;6.498;2022-07-17T08:38:03;16.50;99.90
52879;DHT22;38747;53.140;6.498;2022-07-17T08:40:32;16.60;99.90
52879;DHT22;38747;53.140;6.498;2022-07-17T08:42:59;16.50;99.90
52879;DHT22;38747;53.140;6.498;2022-07-17T08:45:25;16.60;99.90
52879;DHT22;38747;53.140;6.498;2022-07-17T08:47:52;16.60;99.90
52879;DHT22;38747;53.140;6.498;2022-07-17T08:50:22;16.70;99.90
52879;DHT22;38747;53.140;6.498;2022-07-17T08:52:48;16.70;99.90
52879;DHT22;38747;53.140;6.498;2022-07-17T08:55:14;16.80;99.90
52879;DHT22;38747;53.140;6.498;2022-07-17T08:57:41;17.00;99.90
52879;DHT22;38747;53.140;6.498;2022-07-17T09:00:09;17.10;99.90
52879;DHT22;38747;53.140;6.498;2022-07-17T09:02:38;17.20;99.90
52879;DHT22;38747;53.140;6.498;2022-07-17T09:05:05;17.30;99.90
52879;DHT22;38747;53.140;6.498;2022-07-17T09:07:31;17.60;99.90
52879;DHT22;38747;53.140;6.498;2022-07-17T09:09:57;17.70;99.90
52879;DHT22;38747;53.140;6.498;2022-07-17T09:12:28;17.90;99.90
52879;DHT22;38747;53.140;6.498;2022-07-17T09:14:55;18.10;99.90
52879;DHT22;38747;53.140;6.498;2022-07-17T09:17:21;18.20;99.90
52879;DHT22;38747;53.140;6.498;2022-07-17T09:19:48;18.40;99.90
52879;DHT22;38747;53.140;6.498;2022-07-17T09:22:18;18.50;99.90
52879;DHT22;38747;53.140;6.498;2022-07-17T09:24:57;18.50;99.90
52879;DHT22;38747;53.140;6.498;2022-07-17T09:32:19;19.00;99.90
52879;DHT22;38747;53.140;6.498;2022-07-17T09:34:46;19.20;99.90
52879;DHT22;38747;53.140;6.498;2022-07-17T09:37:12;19.30;99.90
52879;DHT22;38747;53.140;6.498;2022-07-17T09:39:38;19.40;99.90
52879;DHT22;38747;53.140;6.498;2022-07-17T09:42:04;19.50;99.90
52879;DHT22;38747;53.140;6.498;2022-07-17T09:44:29;19.70;99.90
52879;DHT22;38747;53.140;6.498;2022-07-17T09:46:55;19.80;99.90
52879;DHT22;38747;53.140;6.498;2022-07-17T09:49:25;19.80;99.90
52879;DHT22;38747;53.140;6.498;2022-07-17T09:51:53;19.90;99.90
52879;DHT22;38747;53.140;6.498;2022-07-17T09:54:21;20.10;99.90
52879;DHT22;38747;53.140;6.498;2022-07-17T09:56:50;20.10;99.90
52879;DHT22;38747;53.140;6.498;2022-07-17T09:59:16;20.20;99.90
52879;DHT22;38747;53.140;6.498;2022-07-17T10:01:44;20.40;99.90
52879;DHT22;38747;53.140;6.498;2022-07-17T10:04:11;20.40;99.90
52879;DHT22;38747;53.140;6.498;2022-07-17T10:06:38;20.30;99.90
52879;DHT22;38747;53.140;6.498;2022-07-17T10:09:04;20.20;99.90
52879;DHT22;38747;53.140;6.498;2022-07-17T10:11:33;20.40;99.90
52879;DHT22;38747;53.140;6.498;2022-07-17T10:14:05;20.60;99.90
52879;DHT22;38747;53.140;6.498;2022-07-17T10:16:32;20.80;99.90
52879;DHT22;38747;53.140;6.498;2022-07-17T10:18:59;21.00;99.90
52879;DHT22;38747;53.140;6.498;2022-07-17T10:21:29;21.10;99.90
52879;DHT22;38747;53.140;6.498;2022-07-17T10:26:33;21.60;99.90
52879;DHT22;38747;53.140;6.498;2022-07-17T10:28:59;21.40;99.90
52879;DHT22;38747;53.140;6.498;2022-07-17T10:31:25;21.60;99.90
52879;DHT22;38747;53.140;6.498;2022-07-17T10:34:02;21.50;99.90
52879;DHT22;38747;53.140;6.498;2022-07-17T10:36:47;21.60;99.90
52879;DHT22;38747;53.140;6.498;2022-07-17T10:39:18;21.80;99.90
52879;DHT22;38747;53.140;6.498;2022-07-17T10:42:01;21.90;99.90
52879;DHT22;38747;53.140;6.498;2022-07-17T10:44:28;21.90;99.90
52879;DHT22;38747;53.140;6.498;2022-07-17T10:46:55;22.00;99.90
52879;DHT22;38747;53.140;6.498;2022-07-17T10:49:24;22.10;99.90
52879;DHT22;38747;53.140;6.498;2022-07-17T10:51:50;22.10;99.90
52879;DHT22;38747;53.140;6.498;2022-07-17T10:54:17;22.30;99.90
52879;DHT22;38747;53.140;6.498;2022-07-17T10:56:42;22.30;99.90
52879;DHT22;38747;53.140;6.498;2022-07-17T10:59:10;22.40;99.90
52879;DHT22;38747;53.140;6.498;2022-07-17T11:01:36;22.40;99.90
52879;DHT22;38747;53.140;6.498;2022-07-17T11:04:02;22.40;99.90
52879;DHT22;38747;53.140;6.498;2022-07-17T11:06:34;22.40;99.90
52879;DHT22;38747;53.140;6.498;2022-07-17T11:09:07;22.40;99.90
52879;DHT22;38747;53.140;6.498;2022-07-17T11:11:47;22.40;99.90
52879;DHT22;38747;53.140;6.498;2022-07-17T11:14:16;22.50;99.90
52879;DHT22;38747;53.140;6.498;2022-07-17T11:16:49;22.50;99.90
52879;DHT22;38747;53.140;6.498;2022-07-17T11:21:54;22.70;99.90
52879;DHT22;38747;53.140;6.498;2022-07-17T11:24:20;22.60;99.90
52879;DHT22;38747;53.140;6.498;2022-07-17T11:26:48;22.80;99.90
52879;DHT22;38747;53.140;6.498;2022-07-17T11:29:14;22.90;99.90
52879;DHT22;38747;53.140;6.498;2022-07-17T11:31:40;23.10;99.90
52879;DHT22;38747;53.140;6.498;2022-07-17T11:34:07;23.20;99.90
52879;DHT22;38747;53.140;6.498;2022-07-17T11:39:11;23.40;99.90
52879;DHT22;38747;53.140;6.498;2022-07-17T11:41:41;23.40;99.90
52879;DHT22;38747;53.140;6.498;2022-07-17T11:44:13;23.40;99.90
52879;DHT22;38747;53.140;6.498;2022-07-17T11:46:44;23.50;99.90
52879;DHT22;38747;53.140;6.498;2022-07-17T11:49:12;23.60;99.90
52879;DHT22;38747;53.140;6.498;2022-07-17T11:51:48;23.70;99.90
52879;DHT22;38747;53.140;6.498;2022-07-17T11:54:15;23.80;99.90
52879;DHT22;38747;53.140;6.498;2022-07-17T11:56:48;23.90;99.90
52879;DHT22;38747;53.140;6.498;2022-07-17T11:59:27;24.00;99.90
52879;DHT22;38747;53.140;6.498;2022-07-17T12:01:54;23.90;99.90
52879;DHT22;38747;53.140;6.498;2022-07-17T12:04:20;24.00;99.90
52879;DHT22;38747;53.140;6.498;2022-07-17T12:06:58;24.00;99.90
52879;DHT22;38747;53.140;6.498;2022-07-17T12:09:31;24.10;99.90
52879;DHT22;38747;53.140;6.498;2022-07-17T12:12:01;24.20;99.90
52879;DHT22;38747;53.140;6.498;2022-07-17T12:14:27;24.20;99.90
52879;DHT22;38747;53.140;6.498;2022-07-17T12:16:56;24.40;99.90
52879;DHT22;38747;53.140;6.498;2022-07-17T12:19:23;24.50;99.90
52879;DHT22;38747;53.140;6.498;2022-07-17T12:21:55;24.60;99.20
52879;DHT22;38747;53.140;6.498;2022-07-17T12:24:28;24.50;99.10
52879;DHT22;38747;53.140;6.498;2022-07-17T12:26:56;24.60;99.50
52879;DHT22;38747;53.140;6.498;2022-07-17T12:29:23;24.50;98.60
52879;DHT22;38747;53.140;6.498;2022-07-17T12:31:48;24.40;97.60
52879;DHT22;38747;53.140;6.498;2022-07-17T12:34:14;24.40;98.00
52879;DHT22;38747;53.140;6.498;2022-07-17T12:36:40;24.50;97.70
52879;DHT22;38747;53.140;6.498;2022-07-17T12:39:05;24.50;99.40
52879;DHT22;38747;53.140;6.498;2022-07-17T12:41:32;24.60;98.50
52879;DHT22;38747;53.140;6.498;2022-07-17T12:43:57;24.70;98.70
52879;DHT22;38747;53.140;6.498;2022-07-17T12:46:26;24.80;97.90
52879;DHT22;38747;53.140;6.498;2022-07-17T12:48:51;24.80;96.80
52879;DHT22;38747;53.140;6.498;2022-07-17T12:51:17;24.80;96.10
52879;DHT22;38747;53.140;6.498;2022-07-17T12:53:44;24.80;95.90
52879;DHT22;38747;53.140;6.498;2022-07-17T12:56:10;24.90;95.60
52879;DHT22;38747;53.140;6.498;2022-07-17T12:58:36;24.90;95.40
52879;DHT22;38747;53.140;6.498;2022-07-17T13:01:03;25.00;94.70
52879;DHT22;38747;53.140;6.498;2022-07-17T13:03:29;25.20;95.20
52879;DHT22;38747;53.140;6.498;2022-07-17T13:05:56;25.40;96.30
52879;DHT22;38747;53.140;6.498;2022-07-17T13:08:21;25.50;96.10
52879;DHT22;38747;53.140;6.498;2022-07-17T13:10:47;25.60;96.50
52879;DHT22;38747;53.140;6.498;2022-07-17T13:13:13;25.70;95.70
52879;DHT22;38747;53.140;6.498;2022-07-17T13:15:38;25.70;95.40
52879;DHT22;38747;53.140;6.498;2022-07-17T13:18:04;25.70;94.90
52879;DHT22;38747;53.140;6.498;2022-07-17T13:20:29;25.70;94.90
52879;DHT22;38747;53.140;6.498;2022-07-17T13:22:55;25.70;94.50
52879;DHT22;38747;53.140;6.498;2022-07-17T13:25:21;25.70;94.20
52879;DHT22;38747;53.140;6.498;2022-07-17T13:27:46;25.70;94.00
52879;DHT22;38747;53.140;6.498;2022-07-17T13:30:12;25.70;93.70
52879;DHT22;38747;53.140;6.498;2022-07-17T13:32:38;25.80;94.30
52879;DHT22;38747;53.140;6.498;2022-07-17T13:35:05;25.90;94.50
52879;DHT22;38747;53.140;6.498;2022-07-17T13:37:31;25.90;94.20
52879;DHT22;38747;53.140;6.498;2022-07-17T13:39:57;25.90;93.50
52879;DHT22;38747;53.140;6.498;2022-07-17T13:42:23;25.90;93.80
52879;DHT22;38747;53.140;6.498;2022-07-17T13:44:49;26.00;93.60
52879;DHT22;38747;53.140;6.498;2022-07-17T13:47:14;25.90;92.10
52879;DHT22;38747;53.140;6.498;2022-07-17T13:49:40;25.90;92.30
52879;DHT22;38747;53.140;6.498;2022-07-17T13:52:06;25.90;91.70
52879;DHT22;38747;53.140;6.498;2022-07-17T13:54:31;26.00;92.10
52879;DHT22;38747;53.140;6.498;2022-07-17T13:56:57;26.10;91.90
52879;DHT22;38747;53.140;6.498;2022-07-17T13:59:23;26.20;92.10
52879;DHT22;38747;53.140;6.498;2022-07-17T14:01:48;26.00;91.40
52879;DHT22;38747;53.140;6.498;2022-07-17T14:04:14;26.00;91.90
52879;DHT22;38747;53.140;6.498;2022-07-17T14:06:40;25.90;91.40
52879;DHT22;38747;53.140;6.498;2022-07-17T14:09:05;25.90;90.40
52879;DHT22;38747;53.140;6.498;2022-07-17T14:11:31;25.70;89.90
52879;DHT22;38747;53.140;6.498;2022-07-17T14:13:57;25.70;90.40
52879;DHT22;38747;53.140;6.498;2022-07-17T14:16:22;25.70;92.30
52879;DHT22;38747;53.140;6.498;2022-07-17T14:18:48;25.60;91.90
52879;DHT22;38747;53.140;6.498;2022-07-17T14:21:35;25.70;90.70
52879;DHT22;38747;53.140;6.498;2022-07-17T14:24:02;25.70;91.70
52879;DHT22;38747;53.140;6.498;2022-07-17T14:26:28;25.70;91.50
52879;DHT22;38747;53.140;6.498;2022-07-17T14:28:53;25.70;91.00
52879;DHT22;38747;53.140;6.498;2022-07-17T14:31:19;25.50;89.50
52879;DHT22;38747;53.140;6.498;2022-07-17T14:33:45;25.50;90.50
52879;DHT22;38747;53.140;6.498;2022-07-17T14:36:12;25.50;91.70
52879;DHT22;38747;53.140;6.498;2022-07-17T14:38:37;25.30;91.40
52879;DHT22;38747;53.140;6.498;2022-07-17T14:41:03;25.30;91.40
52879;DHT22;38747;53.140;6.498;2022-07-17T14:43:29;25.30;91.80
52879;DHT22;38747;53.140;6.498;2022-07-17T14:45:55;25.20;91.80
52879;DHT22;38747;53.140;6.498;2022-07-17T14:48:20;25.20;93.10
52879;DHT22;38747;53.140;6.498;2022-07-17T14:50:46;25.20;91.80
52879;DHT22;38747;53.140;6.498;2022-07-17T14:53:12;25.20;92.00
52879;DHT22;38747;53.140;6.498;2022-07-17T14:55:37;25.30;92.40
52879;DHT22;38747;53.140;6.498;2022-07-17T14:58:03;25.30;92.50
52879;DHT22;38747;53.140;6.498;2022-07-17T15:00:29;25.30;92.60
52879;DHT22;38747;53.140;6.498;2022-07-17T15:02:54;25.40;92.70
52879;DHT22;38747;53.140;6.498;2022-07-17T15:05:20;25.30;92.80
52879;DHT22;38747;53.140;6.498;2022-07-17T15:07:45;25.30;92.50
52879;DHT22;38747;53.140;6.498;2022-07-17T15:10:11;25.10;92.30
52879;DHT22;38747;53.140;6.498;2022-07-17T15:12:37;25.10;92.50
52879;DHT22;38747;53.140;6.498;2022-07-17T15:15:03;24.90;90.90
52879;DHT22;38747;53.140;6.498;2022-07-17T15:17:28;24.90;92.00
52879;DHT22;38747;53.140;6.498;2022-07-17T15:19:54;24.90;92.40
52879;DHT22;38747;53.140;6.498;2022-07-17T15:22:19;24.90;92.60
52879;DHT22;38747;53.140;6.498;2022-07-17T15:24:45;24.90;92.50
52879;DHT22;38747;53.140;6.498;2022-07-17T15:27:11;24.90;92.00
52879;DHT22;38747;53.140;6.498;2022-07-17T15:29:36;24.90;92.40
52879;DHT22;38747;53.140;6.498;2022-07-17T15:32:03;24.90;92.60
52879;DHT22;38747;53.140;6.498;2022-07-17T15:34:29;24.80;92.30
52879;DHT22;38747;53.140;6.498;2022-07-17T15:36:55;24.70;92.30
52879;DHT22;38747;53.140;6.498;2022-07-17T15:39:21;24.70;91.50
52879;DHT22;38747;53.140;6.498;2022-07-17T15:41:46;24.70;92.10
52879;DHT22;38747;53.140;6.498;2022-07-17T15:44:12;24.60;92.00